sensor_id;sensor_type;location;lat;lon;timestamp;P1;durP1;ratioP1;P2;durP2;ratioP2
83554;SDS011;73511;50.996;7.030;2024-02-16T00:02:23;2.45;;;1.63;;
83554;SDS011;73511;50.996;7.030;2024-02-16T00:04:50;2.60;;;1.60;;
83554;SDS011;73511;50.996;7.030;2024-02-16T00:07:16;4.65;;;1.55;;
83554;SDS011;73511;50.996;7.030;2024-02-16T00:09:43;4.35;;;1.63;;
83554;SDS011;73511;50.996;7.030;2024-02-16T00:12:10;2.20;;;1.55;;
83554;SDS011;73511;50.996;7.030;2024-02-16T00:14:37;3.83;;;2.00;;
83554;SDS011;73511;50.996;7.030;2024-02-16T00:17:04;2.22;;;1.58;;
83554;SDS011;73511;50.996;7.030;2024-02-16T00:19:30;4.03;;;1.90;;
83554;SDS011;73511;50.996;7.030;2024-02-16T00:21:58;4.80;;;1.77;;
83554;SDS011;73511;50.996;7.030;2024-02-16T00:24:24;4.50;;;2.13;;
83554;SDS011;73511;50.996;7.030;2024-02-16T00:26:51;6.50;;;2.03;;
83554;SDS011;73511;50.996;7.030;2024-02-16T00:29:18;3.22;;;1.85;;
83554;SDS011;73511;50.996;7.030;2024-02-16T00:31:45;2.75;;;1.60;;
83554;SDS011;73511;50.996;7.030;2024-02-16T00:34:11;2.97;;;1.50;;
83554;SDS011;73511;50.996;7.030;2024-02-16T00:36:38;1.80;;;1.45;;
83554;SDS011;73511;50.996;7.030;2024-02-16T00:39:05;2.72;;;1.63;;
83554;SDS011;73511;50.996;7.030;2024-02-16T00:41:31;2.97;;;1.40;;
83554;SDS011;73511;50.996;7.030;2024-02-16T00:43:58;2.60;;;1.75;;
83554;SDS011;73511;50.996;7.030;2024-02-16T00:46:24;3.97;;;1.85;;
83554;SDS011;73511;50.996;7.030;2024-02-16T00:48:52;5.35;;;1.80;;
83554;SDS011;73511;50.996;7.030;2024-02-16T00:51:20;2.13;;;1.40;;
83554;SDS011;73511;50.996;7.030;2024-02-16T00:53:47;4.18;;;1.65;;
83554;SDS011;73511;50.996;7.030;2024-02-16T00:56:13;1.73;;;1.30;;
83554;SDS011;73511;50.996;7.030;2024-02-16T00:58:40;2.95;;;1.73;;
83554;SDS011;73511;50.996;7.030;2024-02-16T01:01:08;4.15;;;1.80;;
83554;SDS011;73511;50.996;7.030;2024-02-16T01:03:38;4.80;;;1.90;;
83554;SDS011;73511;50.996;7.030;2024-02-16T01:06:05;3.78;;;1.67;;
83554;SDS011;73511;50.996;7.030;2024-02-16T01:08:32;5.20;;;1.95;;
83554;SDS011;73511;50.996;7.030;2024-02-16T01:10:58;6.15;;;1.80;;
83554;SDS011;73511;50.996;7.030;2024-02-16T01:13:25;3.10;;;1.50;;
83554;SDS011;73511;50.996;7.030;2024-02-16T01:15:54;5.32;;;1.80;;
83554;SDS011;73511;50.996;7.030;2024-02-16T01:18:21;2.38;;;1.88;;
83554;SDS011;73511;50.996;7.030;2024-02-16T01:20:48;2.42;;;1.55;;
83554;SDS011;73511;50.996;7.030;2024-02-16T01:23:14;4.13;;;1.98;;
83554;SDS011;73511;50.996;7.030;2024-02-16T01:25:41;2.38;;;1.50;;
83554;SDS011;73511;50.996;7.030;2024-02-16T01:28:08;3.03;;;1.70;;
83554;SDS011;73511;50.996;7.030;2024-02-16T01:30:35;3.53;;;1.50;;
83554;SDS011;73511;50.996;7.030;2024-02-16T01:33:01;3.75;;;1.70;;
83554;SDS011;73511;50.996;7.030;2024-02-16T01:37:55;4.18;;;1.73;;
83554;SDS011;73511;50.996;7.030;2024-02-16T01:40:22;4.10;;;1.70;;
83554;SDS011;73511;50.996;7.030;2024-02-16T01:42:48;2.08;;;1.35;;
83554;SDS011;73511;50.996;7.030;2024-02-16T01:45:15;3.00;;;1.75;;
83554;SDS011;73511;50.996;7.030;2024-02-16T01:47:44;5.60;;;1.77;;
83554;SDS011;73511;50.996;7.030;2024-02-16T01:50:14;2.53;;;1.67;;
83554;SDS011;73511;50.996;7.030;2024-02-16T01:52:47;2.78;;;1.38;;
83554;SDS011;73511;50.996;7.030;2024-02-16T01:55:16;3.58;;;1.38;;
83554;SDS011;73511;50.996;7.030;2024-02-16T01:57:43;3.28;;;1.70;;
83554;SDS011;73511;50.996;7.030;2024-02-16T02:02:38;3.38;;;1.70;;
83554;SDS011;73511;50.996;7.030;2024-02-16T02:05:04;3.40;;;1.35;;
83554;SDS011;73511;50.996;7.030;2024-02-16T02:07:32;3.17;;;1.67;;
83554;SDS011;73511;50.996;7.030;2024-02-16T02:09:59;5.43;;;1.85;;
83554;SDS011;73511;50.996;7.030;2024-02-16T02:12:26;5.28;;;2.00;;
83554;SDS011;73511;50.996;7.030;2024-02-16T02:14:53;3.00;;;1.77;;
83554;SDS011;73511;50.996;7.030;2024-02-16T02:17:19;1.92;;;1.45;;
83554;SDS011;73511;50.996;7.030;2024-02-16T02:19:46;2.58;;;1.40;;
83554;SDS011;73511;50.996;7.030;2024-02-16T02:22:19;3.25;;;1.75;;
83554;SDS011;73511;50.996;7.030;2024-02-16T02:24:46;6.03;;;1.98;;
83554;SDS011;73511;50.996;7.030;2024-02-16T02:27:14;4.00;;;1.70;;
83554;SDS011;73511;50.996;7.030;2024-02-16T02:29:42;5.95;;;1.77;;
83554;SDS011;73511;50.996;7.030;2024-02-16T02:32:08;3.40;;;1.40;;
83554;SDS011;73511;50.996;7.030;2024-02-16T02:34:36;3.95;;;1.70;;
83554;SDS011;73511;50.996;7.030;2024-02-16T02:37:03;2.53;;;1.50;;
83554;SDS011;73511;50.996;7.030;2024-02-16T02:39:32;6.53;;;1.90;;
83554;SDS011;73511;50.996;7.030;2024-02-16T02:41:59;4.40;;;1.52;;
83554;SDS011;73511;50.996;7.030;2024-02-16T02:44:26;5.60;;;1.83;;
83554;SDS011;73511;50.996;7.030;2024-02-16T02:46:52;4.50;;;1.60;;
83554;SDS011;73511;50.996;7.030;2024-02-16T02:49:19;5.70;;;1.83;;
83554;SDS011;73511;50.996;7.030;2024-02-16T02:51:45;3.40;;;1.58;;
83554;SDS011;73511;50.996;7.030;2024-02-16T02:54:12;3.67;;;1.63;;
83554;SDS011;73511;50.996;7.030;2024-02-16T02:56:39;3.22;;;1.80;;
83554;SDS011;73511;50.996;7.030;2024-02-16T02:59:08;3.35;;;1.50;;
83554;SDS011;73511;50.996;7.030;2024-02-16T03:01:36;5.60;;;1.60;;
83554;SDS011;73511;50.996;7.030;2024-02-16T03:04:03;1.95;;;1.63;;
83554;SDS011;73511;50.996;7.030;2024-02-16T03:06:30;4.45;;;2.03;;
83554;SDS011;73511;50.996;7.030;2024-02-16T03:08:57;2.30;;;1.50;;
83554;SDS011;73511;50.996;7.030;2024-02-16T03:11:23;4.47;;;1.83;;
83554;SDS011;73511;50.996;7.030;2024-02-16T03:13:50;3.25;;;1.92;;
83554;SDS011;73511;50.996;7.030;2024-02-16T03:16:17;7.30;;;2.38;;
83554;SDS011;73511;50.996;7.030;2024-02-16T03:18:43;4.05;;;1.65;;
83554;SDS011;73511;50.996;7.030;2024-02-16T03:21:14;4.75;;;1.67;;
83554;SDS011;73511;50.996;7.030;2024-02-16T03:23:44;3.90;;;1.75;;
83554;SDS011;73511;50.996;7.030;2024-02-16T03:26:17;3.60;;;1.63;;
83554;SDS011;73511;50.996;7.030;2024-02-16T03:28:45;2.53;;;1.60;;
83554;SDS011;73511;50.996;7.030;2024-02-16T03:31:18;4.03;;;1.50;;
83554;SDS011;73511;50.996;7.030;2024-02-16T03:33:51;2.85;;;1.60;;
83554;SDS011;73511;50.996;7.030;2024-02-16T03:36:18;4.25;;;1.80;;
83554;SDS011;73511;50.996;7.030;2024-02-16T03:38:47;4.20;;;1.98;;
83554;SDS011;73511;50.996;7.030;2024-02-16T03:41:20;5.57;;;1.70;;
83554;SDS011;73511;50.996;7.030;2024-02-16T03:43:48;3.95;;;1.58;;
83554;SDS011;73511;50.996;7.030;2024-02-16T03:46:14;3.65;;;1.60;;
83554;SDS011;73511;50.996;7.030;2024-02-16T03:48:41;4.40;;;1.65;;
83554;SDS011;73511;50.996;7.030;2024-02-16T03:51:08;3.50;;;1.70;;
83554;SDS011;73511;50.996;7.030;2024-02-16T03:53:34;2.30;;;1.55;;
83554;SDS011;73511;50.996;7.030;2024-02-16T03:56:01;4.00;;;2.00;;
83554;SDS011;73511;50.996;7.030;2024-02-16T03:58:28;3.90;;;1.83;;
83554;SDS011;73511;50.996;7.030;2024-02-16T04:00:54;4.28;;;1.90;;
83554;SDS011;73511;50.996;7.030;2024-02-16T04:03:21;3.95;;;2.05;;
83554;SDS011;73511;50.996;7.030;2024-02-16T04:05:48;2.30;;;1.50;;
83554;SDS011;73511;50.996;7.030;2024-02-16T04:08:14;3.60;;;1.67;;
83554;SDS011;73511;50.996;7.030;2024-02-16T04:10:41;6.10;;;1.50;;
83554;SDS011;73511;50.996;7.030;2024-02-16T04:13:08;6.22;;;1.90;;
83554;SDS011;73511;50.996;7.030;2024-02-16T04:15:34;3.58;;;1.88;;
83554;SDS011;73511;50.996;7.030;2024-02-16T04:18:01;3.50;;;1.95;;
83554;SDS011;73511;50.996;7.030;2024-02-16T04:20:28;5.97;;;1.95;;
83554;SDS011;73511;50.996;7.030;2024-02-16T04:22:54;2.75;;;1.80;;
83554;SDS011;73511;50.996;7.030;2024-02-16T04:25:21;3.55;;;2.03;;
83554;SDS011;73511;50.996;7.030;2024-02-16T04:27:47;3.38;;;1.60;;
83554;SDS011;73511;50.996;7.030;2024-02-16T04:30:14;5.13;;;1.95;;
83554;SDS011;73511;50.996;7.030;2024-02-16T04:32:41;3.13;;;2.10;;
83554;SDS011;73511;50.996;7.030;2024-02-16T04:35:07;4.63;;;1.92;;
83554;SDS011;73511;50.996;7.030;2024-02-16T04:37:38;7.28;;;2.28;;
83554;SDS011;73511;50.996;7.030;2024-02-16T04:40:06;3.30;;;1.50;;
83554;SDS011;73511;50.996;7.030;2024-02-16T04:42:33;4.15;;;1.90;;
83554;SDS011;73511;50.996;7.030;2024-02-16T04:44:59;2.95;;;1.60;;
83554;SDS011;73511;50.996;7.030;2024-02-16T04:47:31;2.30;;;1.60;;
83554;SDS011;73511;50.996;7.030;2024-02-16T04:49:58;2.20;;;1.63;;
83554;SDS011;73511;50.996;7.030;2024-02-16T04:52:24;4.72;;;1.90;;
83554;SDS011;73511;50.996;7.030;2024-02-16T04:54:55;4.35;;;1.67;;
83554;SDS011;73511;50.996;7.030;2024-02-16T04:57:22;7.63;;;2.22;;
83554;SDS011;73511;50.996;7.030;2024-02-16T04:59:49;8.32;;;2.40;;
83554;SDS011;73511;50.996;7.030;2024-02-16T05:02:15;4.85;;;1.80;;
83554;SDS011;73511;50.996;7.030;2024-02-16T05:04:42;3.70;;;1.70;;
83554;SDS011;73511;50.996;7.030;2024-02-16T05:07:08;5.60;;;1.38;;
83554;SDS011;73511;50.996;7.030;2024-02-16T05:09:36;4.13;;;2.25;;
83554;SDS011;73511;50.996;7.030;2024-02-16T05:12:03;5.70;;;2.08;;
83554;SDS011;73511;50.996;7.030;2024-02-16T05:14:30;3.03;;;1.92;;
83554;SDS011;73511;50.996;7.030;2024-02-16T05:16:56;4.55;;;1.88;;
83554;SDS011;73511;50.996;7.030;2024-02-16T05:19:25;3.25;;;1.92;;
83554;SDS011;73511;50.996;7.030;2024-02-16T05:21:52;6.25;;;2.40;;
83554;SDS011;73511;50.996;7.030;2024-02-16T05:24:18;3.25;;;1.75;;
83554;SDS011;73511;50.996;7.030;2024-02-16T05:26:45;5.40;;;1.88;;
83554;SDS011;73511;50.996;7.030;2024-02-16T05:29:11;4.00;;;2.40;;
83554;SDS011;73511;50.996;7.030;2024-02-16T05:31:38;4.38;;;1.95;;
83554;SDS011;73511;50.996;7.030;2024-02-16T05:34:05;3.88;;;2.00;;
83554;SDS011;73511;50.996;7.030;2024-02-16T05:36:32;3.55;;;1.95;;
83554;SDS011;73511;50.996;7.030;2024-02-16T05:39:02;3.97;;;1.90;;
83554;SDS011;73511;50.996;7.030;2024-02-16T05:41:36;4.72;;;2.45;;
83554;SDS011;73511;50.996;7.030;2024-02-16T05:44:04;3.08;;;2.38;;
83554;SDS011;73511;50.996;7.030;2024-02-16T05:46:31;2.78;;;1.48;;
83554;SDS011;73511;50.996;7.030;2024-02-16T05:49:00;5.45;;;2.75;;
83554;SDS011;73511;50.996;7.030;2024-02-16T05:51:34;5.45;;;2.03;;
83554;SDS011;73511;50.996;7.030;2024-02-16T05:54:02;4.78;;;1.88;;
83554;SDS011;73511;50.996;7.030;2024-02-16T05:56:29;5.68;;;2.22;;
83554;SDS011;73511;50.996;7.030;2024-02-16T05:58:56;3.55;;;2.10;;
83554;SDS011;73511;50.996;7.030;2024-02-16T06:01:23;2.80;;;2.13;;
83554;SDS011;73511;50.996;7.030;2024-02-16T06:03:49;5.15;;;2.10;;
83554;SDS011;73511;50.996;7.030;2024-02-16T06:06:16;7.28;;;1.90;;
83554;SDS011;73511;50.996;7.030;2024-02-16T06:08:43;4.60;;;2.33;;
83554;SDS011;73511;50.996;7.030;2024-02-16T06:11:09;5.70;;;2.08;;
83554;SDS011;73511;50.996;7.030;2024-02-16T06:13:39;5.40;;;2.30;;
83554;SDS011;73511;50.996;7.030;2024-02-16T06:16:06;5.70;;;2.38;;
83554;SDS011;73511;50.996;7.030;2024-02-16T06:18:35;5.22;;;1.92;;
83554;SDS011;73511;50.996;7.030;2024-02-16T06:21:03;4.45;;;2.30;;
83554;SDS011;73511;50.996;7.030;2024-02-16T06:23:29;5.15;;;2.20;;
83554;SDS011;73511;50.996;7.030;2024-02-16T06:25:56;3.53;;;2.05;;
83554;SDS011;73511;50.996;7.030;2024-02-16T06:28:23;6.47;;;2.42;;
83554;SDS011;73511;50.996;7.030;2024-02-16T06:30:52;3.88;;;2.33;;
83554;SDS011;73511;50.996;7.030;2024-02-16T06:33:19;7.75;;;2.72;;
83554;SDS011;73511;50.996;7.030;2024-02-16T06:35:46;3.47;;;2.22;;
83554;SDS011;73511;50.996;7.030;2024-02-16T06:38:14;3.63;;;2.20;;
83554;SDS011;73511;50.996;7.030;2024-02-16T06:40:41;3.47;;;1.77;;
83554;SDS011;73511;50.996;7.030;2024-02-16T06:43:07;4.05;;;1.90;;
83554;SDS011;73511;50.996;7.030;2024-02-16T06:45:37;7.78;;;2.45;;
83554;SDS011;73511;50.996;7.030;2024-02-16T06:48:04;4.03;;;2.10;;
83554;SDS011;73511;50.996;7.030;2024-02-16T06:50:32;4.15;;;2.10;;
83554;SDS011;73511;50.996;7.030;2024-02-16T06:52:58;4.45;;;1.90;;
83554;SDS011;73511;50.996;7.030;2024-02-16T06:55:29;4.82;;;2.00;;
83554;SDS011;73511;50.996;7.030;2024-02-16T06:57:55;3.75;;;2.40;;
83554;SDS011;73511;50.996;7.030;2024-02-16T07:00:22;7.43;;;2.78;;
83554;SDS011;73511;50.996;7.030;2024-02-16T07:02:49;5.80;;;2.30;;
83554;SDS011;73511;50.996;7.030;2024-02-16T07:05:16;4.00;;;2.03;;
83554;SDS011;73511;50.996;7.030;2024-02-16T07:07:44;6.47;;;2.25;;
83554;SDS011;73511;50.996;7.030;2024-02-16T07:10:11;5.35;;;2.20;;
83554;SDS011;73511;50.996;7.030;2024-02-16T07:12:40;3.97;;;2.13;;
83554;SDS011;73511;50.996;7.030;2024-02-16T07:15:07;4.43;;;2.00;;
83554;SDS011;73511;50.996;7.030;2024-02-16T07:17:34;4.60;;;2.30;;
83554;SDS011;73511;50.996;7.030;2024-02-16T07:20:02;3.63;;;1.98;;
83554;SDS011;73511;50.996;7.030;2024-02-16T07:22:30;5.50;;;2.00;;
83554;SDS011;73511;50.996;7.030;2024-02-16T07:24:58;3.55;;;2.30;;
83554;SDS011;73511;50.996;7.030;2024-02-16T07:27:26;5.07;;;2.60;;
83554;SDS011;73511;50.996;7.030;2024-02-16T07:29:53;4.00;;;1.95;;
83554;SDS011;73511;50.996;7.030;2024-02-16T07:32:19;5.15;;;2.33;;
83554;SDS011;73511;50.996;7.030;2024-02-16T07:34:46;4.88;;;2.13;;
83554;SDS011;73511;50.996;7.030;2024-02-16T07:37:14;3.60;;;2.00;;
83554;SDS011;73511;50.996;7.030;2024-02-16T07:39:42;3.58;;;1.98;;
83554;SDS011;73511;50.996;7.030;2024-02-16T07:42:09;4.50;;;2.40;;
83554;SDS011;73511;50.996;7.030;2024-02-16T07:44:36;2.97;;;2.30;;
83554;SDS011;73511;50.996;7.030;2024-02-16T07:47:03;3.17;;;2.38;;
83554;SDS011;73511;50.996;7.030;2024-02-16T07:49:30;5.40;;;2.08;;
83554;SDS011;73511;50.996;7.030;2024-02-16T07:51:57;4.88;;;2.28;;
83554;SDS011;73511;50.996;7.030;2024-02-16T07:54:27;7.38;;;2.30;;
83554;SDS011;73511;50.996;7.030;2024-02-16T07:56:53;3.30;;;1.70;;
83554;SDS011;73511;50.996;7.030;2024-02-16T07:59:20;3.95;;;2.13;;
83554;SDS011;73511;50.996;7.030;2024-02-16T08:01:47;5.53;;;2.42;;
83554;SDS011;73511;50.996;7.030;2024-02-16T08:04:13;6.38;;;2.65;;
83554;SDS011;73511;50.996;7.030;2024-02-16T08:06:40;3.97;;;1.98;;
83554;SDS011;73511;50.996;7.030;2024-02-16T08:09:06;6.22;;;2.70;;
83554;SDS011;73511;50.996;7.030;2024-02-16T08:11:33;9.73;;;2.80;;
83554;SDS011;73511;50.996;7.030;2024-02-16T08:14:00;8.88;;;3.03;;
83554;SDS011;73511;50.996;7.030;2024-02-16T08:16:27;5.13;;;2.25;;
83554;SDS011;73511;50.996;7.030;2024-02-16T08:18:54;5.10;;;2.30;;
83554;SDS011;73511;50.996;7.030;2024-02-16T08:21:21;3.97;;;2.58;;
83554;SDS011;73511;50.996;7.030;2024-02-16T08:23:47;5.85;;;2.08;;
83554;SDS011;73511;50.996;7.030;2024-02-16T08:26:14;5.55;;;2.55;;
83554;SDS011;73511;50.996;7.030;2024-02-16T08:28:43;7.55;;;2.30;;
83554;SDS011;73511;50.996;7.030;2024-02-16T08:31:14;4.55;;;2.42;;
83554;SDS011;73511;50.996;7.030;2024-02-16T08:33:42;5.97;;;2.78;;
83554;SDS011;73511;50.996;7.030;2024-02-16T08:36:09;7.88;;;3.13;;
83554;SDS011;73511;50.996;7.030;2024-02-16T08:38:36;8.18;;;2.70;;
83554;SDS011;73511;50.996;7.030;2024-02-16T08:41:03;3.92;;;2.28;;
83554;SDS011;73511;50.996;7.030;2024-02-16T08:43:29;5.32;;;3.00;;
83554;SDS011;73511;50.996;7.030;2024-02-16T08:45:56;4.28;;;2.38;;
83554;SDS011;73511;50.996;7.030;2024-02-16T08:48:24;5.30;;;2.60;;
83554;SDS011;73511;50.996;7.030;2024-02-16T08:50:51;5.40;;;2.80;;
83554;SDS011;73511;50.996;7.030;2024-02-16T08:53:18;4.22;;;2.22;;
83554;SDS011;73511;50.996;7.030;2024-02-16T08:55:44;5.05;;;2.42;;
83554;SDS011;73511;50.996;7.030;2024-02-16T08:58:11;4.63;;;2.47;;
83554;SDS011;73511;50.996;7.030;2024-02-16T09:00:39;8.13;;;2.35;;
83554;SDS011;73511;50.996;7.030;2024-02-16T09:03:06;3.83;;;2.35;;
83554;SDS011;73511;50.996;7.030;2024-02-16T09:05:33;8.48;;;2.30;;
83554;SDS011;73511;50.996;7.030;2024-02-16T09:07:59;5.43;;;2.50;;
83554;SDS011;73511;50.996;7.030;2024-02-16T09:10:26;4.93;;;2.20;;
83554;SDS011;73511;50.996;7.030;2024-02-16T09:12:53;4.28;;;2.28;;
83554;SDS011;73511;50.996;7.030;2024-02-16T09:15:19;6.03;;;2.22;;
83554;SDS011;73511;50.996;7.030;2024-02-16T09:17:46;6.28;;;1.90;;
83554;SDS011;73511;50.996;7.030;2024-02-16T09:20:12;4.40;;;2.47;;
83554;SDS011;73511;50.996;7.030;2024-02-16T09:22:40;5.85;;;2.17;;
83554;SDS011;73511;50.996;7.030;2024-02-16T09:25:12;5.10;;;2.17;;
83554;SDS011;73511;50.996;7.030;2024-02-16T09:27:40;3.63;;;2.47;;
83554;SDS011;73511;50.996;7.030;2024-02-16T09:30:11;6.10;;;2.15;;
83554;SDS011;73511;50.996;7.030;2024-02-16T09:32:39;3.45;;;2.17;;
83554;SDS011;73511;50.996;7.030;2024-02-16T09:35:08;5.13;;;1.83;;
83554;SDS011;73511;50.996;7.030;2024-02-16T09:40:03;4.20;;;2.30;;
83554;SDS011;73511;50.996;7.030;2024-02-16T09:42:32;6.78;;;2.33;;
83554;SDS011;73511;50.996;7.030;2024-02-16T09:45:05;4.78;;;2.00;;
83554;SDS011;73511;50.996;7.030;2024-02-16T09:47:33;7.22;;;2.20;;
83554;SDS011;73511;50.996;7.030;2024-02-16T09:50:01;3.55;;;1.80;;
83554;SDS011;73511;50.996;7.030;2024-02-16T09:52:29;4.38;;;1.98;;
83554;SDS011;73511;50.996;7.030;2024-02-16T09:54:56;4.97;;;2.30;;
83554;SDS011;73511;50.996;7.030;2024-02-16T09:57:22;10.35;;;2.30;;
83554;SDS011;73511;50.996;7.030;2024-02-16T09:59:49;4.65;;;2.40;;
83554;SDS011;73511;50.996;7.030;2024-02-16T10:02:16;4.88;;;2.13;;
83554;SDS011;73511;50.996;7.030;2024-02-16T10:04:43;3.50;;;1.85;;
83554;SDS011;73511;50.996;7.030;2024-02-16T10:07:10;7.25;;;2.17;;
83554;SDS011;73511;50.996;7.030;2024-02-16T10:09:39;4.32;;;2.28;;
83554;SDS011;73511;50.996;7.030;2024-02-16T10:12:08;5.85;;;2.58;;
83554;SDS011;73511;50.996;7.030;2024-02-16T10:14:35;7.10;;;2.55;;
83554;SDS011;73511;50.996;7.030;2024-02-16T10:17:02;6.43;;;2.17;;
83554;SDS011;73511;50.996;7.030;2024-02-16T10:19:30;5.47;;;2.05;;
83554;SDS011;73511;50.996;7.030;2024-02-16T10:22:11;7.03;;;2.50;;
83554;SDS011;73511;50.996;7.030;2024-02-16T10:24:40;6.22;;;2.83;;
83554;SDS011;73511;50.996;7.030;2024-02-16T10:27:18;4.75;;;2.35;;
83554;SDS011;73511;50.996;7.030;2024-02-16T10:29:49;4.80;;;2.40;;
83554;SDS011;73511;50.996;7.030;2024-02-16T10:32:18;7.22;;;2.20;;
83554;SDS011;73511;50.996;7.030;2024-02-16T10:34:46;5.30;;;2.50;;
83554;SDS011;73511;50.996;7.030;2024-02-16T10:37:13;6.38;;;2.38;;
83554;SDS011;73511;50.996;7.030;2024-02-16T10:39:41;3.20;;;1.90;;
83554;SDS011;73511;50.996;7.030;2024-02-16T10:44:35;5.20;;;2.00;;
83554;SDS011;73511;50.996;7.030;2024-02-16T10:47:02;4.63;;;2.65;;
83554;SDS011;73511;50.996;7.030;2024-02-16T10:49:31;7.75;;;2.33;;
83554;SDS011;73511;50.996;7.030;2024-02-16T10:51:58;5.28;;;2.05;;
83554;SDS011;73511;50.996;7.030;2024-02-16T10:54:27;5.05;;;2.13;;
83554;SDS011;73511;50.996;7.030;2024-02-16T10:56:55;4.40;;;2.30;;
83554;SDS011;73511;50.996;7.030;2024-02-16T10:59:22;5.55;;;2.58;;
83554;SDS011;73511;50.996;7.030;2024-02-16T11:01:58;4.30;;;2.17;;
83554;SDS011;73511;50.996;7.030;2024-02-16T11:04:35;18.67;;;3.05;;
83554;SDS011;73511;50.996;7.030;2024-02-16T11:07:15;7.65;;;2.78;;
83554;SDS011;73511;50.996;7.030;2024-02-16T11:09:43;6.13;;;2.53;;
83554;SDS011;73511;50.996;7.030;2024-02-16T11:12:11;7.20;;;2.20;;
83554;SDS011;73511;50.996;7.030;2024-02-16T11:14:42;4.78;;;2.40;;
83554;SDS011;73511;50.996;7.030;2024-02-16T11:17:21;3.45;;;2.25;;
83554;SDS011;73511;50.996;7.030;2024-02-16T11:19:48;6.10;;;2.47;;
83554;SDS011;73511;50.996;7.030;2024-02-16T11:22:16;5.35;;;2.40;;
83554;SDS011;73511;50.996;7.030;2024-02-16T11:24:45;6.57;;;2.70;;
83554;SDS011;73511;50.996;7.030;2024-02-16T11:27:16;10.02;;;2.60;;
83554;SDS011;73511;50.996;7.030;2024-02-16T11:29:48;6.05;;;2.67;;
83554;SDS011;73511;50.996;7.030;2024-02-16T11:32:16;5.28;;;2.35;;
83554;SDS011;73511;50.996;7.030;2024-02-16T11:34:44;5.22;;;2.75;;
83554;SDS011;73511;50.996;7.030;2024-02-16T11:37:12;5.95;;;2.38;;
83554;SDS011;73511;50.996;7.030;2024-02-16T11:39:39;4.32;;;2.40;;
83554;SDS011;73511;50.996;7.030;2024-02-16T11:42:11;2.95;;;1.92;;
83554;SDS011;73511;50.996;7.030;2024-02-16T11:44:39;5.80;;;2.75;;
83554;SDS011;73511;50.996;7.030;2024-02-16T11:47:07;6.10;;;2.50;;
83554;SDS011;73511;50.996;7.030;2024-02-16T11:49:41;4.38;;;2.25;;
83554;SDS011;73511;50.996;7.030;2024-02-16T11:52:08;6.75;;;2.78;;
83554;SDS011;73511;50.996;7.030;2024-02-16T11:54:35;3.13;;;2.35;;
83554;SDS011;73511;50.996;7.030;2024-02-16T11:57:03;6.38;;;2.67;;
83554;SDS011;73511;50.996;7.030;2024-02-16T11:59:30;6.18;;;3.05;;
83554;SDS011;73511;50.996;7.030;2024-02-16T12:01:58;14.73;;;3.15;;
83554;SDS011;73511;50.996;7.030;2024-02-16T12:04:25;7.55;;;3.05;;
83554;SDS011;73511;50.996;7.030;2024-02-16T12:06:57;4.65;;;2.60;;
83554;SDS011;73511;50.996;7.030;2024-02-16T12:09:30;4.50;;;2.60;;
83554;SDS011;73511;50.996;7.030;2024-02-16T12:12:01;6.60;;;2.88;;
83554;SDS011;73511;50.996;7.030;2024-02-16T12:14:29;6.45;;;3.25;;
83554;SDS011;73511;50.996;7.030;2024-02-16T12:16:56;7.13;;;2.80;;
83554;SDS011;73511;50.996;7.030;2024-02-16T12:24:22;7.57;;;2.95;;
83554;SDS011;73511;50.996;7.030;2024-02-16T12:26:49;6.45;;;2.40;;
83554;SDS011;73511;50.996;7.030;2024-02-16T12:29:16;6.00;;;2.83;;
83554;SDS011;73511;50.996;7.030;2024-02-16T12:31:43;8.07;;;3.30;;
83554;SDS011;73511;50.996;7.030;2024-02-16T12:34:11;7.15;;;3.03;;
83554;SDS011;73511;50.996;7.030;2024-02-16T12:36:39;8.45;;;3.08;;
83554;SDS011;73511;50.996;7.030;2024-02-16T12:39:14;9.32;;;3.40;;
83554;SDS011;73511;50.996;7.030;2024-02-16T12:41:42;6.53;;;3.25;;
83554;SDS011;73511;50.996;7.030;2024-02-16T12:44:10;12.13;;;3.42;;
83554;SDS011;73511;50.996;7.030;2024-02-16T12:46:37;6.47;;;2.97;;
83554;SDS011;73511;50.996;7.030;2024-02-16T12:49:05;6.43;;;3.60;;
83554;SDS011;73511;50.996;7.030;2024-02-16T12:51:32;9.15;;;3.05;;
83554;SDS011;73511;50.996;7.030;2024-02-16T12:54:00;7.15;;;3.40;;
83554;SDS011;73511;50.996;7.030;2024-02-16T12:56:30;11.35;;;3.53;;
83554;SDS011;73511;50.996;7.030;2024-02-16T12:58:57;10.77;;;3.70;;
83554;SDS011;73511;50.996;7.030;2024-02-16T13:01:26;9.60;;;3.70;;
83554;SDS011;73511;50.996;7.030;2024-02-16T13:03:53;5.90;;;3.47;;
83554;SDS011;73511;50.996;7.030;2024-02-16T13:06:20;6.45;;;3.13;;
83554;SDS011;73511;50.996;7.030;2024-02-16T13:08:54;11.23;;;4.57;;
83554;SDS011;73511;50.996;7.030;2024-02-16T13:11:21;9.23;;;4.30;;
83554;SDS011;73511;50.996;7.030;2024-02-16T13:13:47;12.35;;;4.65;;
83554;SDS011;73511;50.996;7.030;2024-02-16T13:16:14;12.00;;;4.95;;
83554;SDS011;73511;50.996;7.030;2024-02-16T13:18:41;11.35;;;4.38;;
83554;SDS011;73511;50.996;7.030;2024-02-16T13:21:08;8.93;;;4.20;;
83554;SDS011;73511;50.996;7.030;2024-02-16T13:23:34;9.65;;;4.22;;
83554;SDS011;73511;50.996;7.030;2024-02-16T13:26:01;7.88;;;3.80;;
83554;SDS011;73511;50.996;7.030;2024-02-16T13:28:28;10.20;;;4.22;;
83554;SDS011;73511;50.996;7.030;2024-02-16T13:30:54;9.27;;;3.90;;
83554;SDS011;73511;50.996;7.030;2024-02-16T13:33:21;8.57;;;3.80;;
83554;SDS011;73511;50.996;7.030;2024-02-16T13:35:48;7.32;;;3.80;;
83554;SDS011;73511;50.996;7.030;2024-02-16T13:38:14;11.80;;;4.13;;
83554;SDS011;73511;50.996;7.030;2024-02-16T13:40:41;8.13;;;4.28;;
83554;SDS011;73511;50.996;7.030;2024-02-16T13:43:09;7.93;;;4.30;;
83554;SDS011;73511;50.996;7.030;2024-02-16T13:45:51;11.10;;;4.93;;
83554;SDS011;73511;50.996;7.030;2024-02-16T13:48:19;9.27;;;4.60;;
83554;SDS011;73511;50.996;7.030;2024-02-16T13:50:47;10.95;;;4.95;;
83554;SDS011;73511;50.996;7.030;2024-02-16T13:53:14;15.35;;;5.78;;
83554;SDS011;73511;50.996;7.030;2024-02-16T13:55:46;16.42;;;6.25;;
83554;SDS011;73511;50.996;7.030;2024-02-16T13:58:13;17.42;;;5.25;;
83554;SDS011;73511;50.996;7.030;2024-02-16T14:00:39;9.45;;;4.63;;
83554;SDS011;73511;50.996;7.030;2024-02-16T14:03:08;14.23;;;5.72;;
83554;SDS011;73511;50.996;7.030;2024-02-16T14:05:36;11.35;;;4.55;;
83554;SDS011;73511;50.996;7.030;2024-02-16T14:08:04;10.20;;;4.90;;
83554;SDS011;73511;50.996;7.030;2024-02-16T14:10:34;14.32;;;5.13;;
83554;SDS011;73511;50.996;7.030;2024-02-16T14:13:01;12.13;;;4.63;;
83554;SDS011;73511;50.996;7.030;2024-02-16T14:15:28;9.98;;;5.22;;
83554;SDS011;73511;50.996;7.030;2024-02-16T14:17:58;11.68;;;5.20;;
83554;SDS011;73511;50.996;7.030;2024-02-16T14:20:26;15.80;;;6.78;;
83554;SDS011;73511;50.996;7.030;2024-02-16T14:22:53;14.38;;;7.63;;
83554;SDS011;73511;50.996;7.030;2024-02-16T14:25:19;11.55;;;6.22;;
83554;SDS011;73511;50.996;7.030;2024-02-16T14:27:46;18.60;;;5.78;;
83554;SDS011;73511;50.996;7.030;2024-02-16T14:30:13;21.25;;;7.97;;
83554;SDS011;73511;50.996;7.030;2024-02-16T14:32:40;18.00;;;6.60;;
83554;SDS011;73511;50.996;7.030;2024-02-16T14:35:07;16.73;;;6.28;;
83554;SDS011;73511;50.996;7.030;2024-02-16T14:37:35;10.90;;;5.05;;
83554;SDS011;73511;50.996;7.030;2024-02-16T14:40:02;9.55;;;4.18;;
83554;SDS011;73511;50.996;7.030;2024-02-16T14:42:30;8.85;;;4.45;;
83554;SDS011;73511;50.996;7.030;2024-02-16T14:44:56;10.02;;;4.45;;
83554;SDS011;73511;50.996;7.030;2024-02-16T14:47:23;10.05;;;4.55;;
83554;SDS011;73511;50.996;7.030;2024-02-16T14:49:50;14.50;;;4.60;;
83554;SDS011;73511;50.996;7.030;2024-02-16T14:52:17;14.05;;;5.32;;
83554;SDS011;73511;50.996;7.030;2024-02-16T14:54:43;11.13;;;4.80;;
83554;SDS011;73511;50.996;7.030;2024-02-16T14:57:10;9.55;;;4.95;;
83554;SDS011;73511;50.996;7.030;2024-02-16T14:59:37;11.52;;;4.85;;
83554;SDS011;73511;50.996;7.030;2024-02-16T15:02:03;9.27;;;5.38;;
83554;SDS011;73511;50.996;7.030;2024-02-16T15:04:30;13.00;;;4.82;;